Time;durP1;ratioP1;P1;durP2;ratioP2;P2;SDS_P1;SDS_P2;PMS_P1;PMS_P2;Temp;Humidity;BMP_temperature;BMP_pressure;BME280_temperature;BME280_humidity;BME280_pressure;Samples;Min_cycle;Max_cycle;Signal;HPM_P1;HPM_P2
2023/09/29 00:00:53;;;;;;;5.70;5.03;;;18.60;99.90;;;;;;5103689;28;20425;-64
2023/09/29 00:03:19;;;;;;;6.20;4.50;;;18.60;99.90;;;;;;5098411;28;21284;-64
2023/09/29 00:05:45;;;;;;;6.00;4.50;;;18.70;99.90;;;;;;5099425;28;20434;-63
2023/09/29 00:08:16;;;;;;;5.67;4.87;;;18.60;99.90;;;;;;5098912;28;20180;-64
2023/09/29 00:10:43;;;;;;;5.30;4.10;;;18.70;99.90;;;;;;5099461;28;20507;-64
2023/09/29 00:13:08;;;;;;;4.77;4.27;;;18.70;99.90;;;;;;5103862;28;20419;-64
2023/09/29 00:15:34;;;;;;;6.97;4.23;;;18.70;99.90;;;;;;5097906;28;20433;-64
2023/09/29 00:18:00;;;;;;;5.20;4.30;;;18.70;99.90;;;;;;5098800;28;20188;-64
2023/09/29 00:20:26;;;;;;;5.07;4.57;;;18.70;99.90;;;;;;5096135;28;20245;-64
2023/09/29 00:22:58;;;;;;;5.27;4.40;;;18.80;99.90;;;;;;5095563;28;20933;-64
2023/09/29 00:25:23;;;;;;;5.90;4.47;;;18.80;99.90;;;;;;5098187;28;20967;-64
2023/09/29 00:27:50;;;;;;;5.10;4.07;;;18.80;99.90;;;;;;5094770;28;20472;-65
2023/09/29 00:30:16;;;;;;;4.37;4.00;;;18.80;99.90;;;;;;5103135;28;20729;-65
2023/09/29 00:32:50;;;;;;;5.17;3.93;;;18.80;99.90;;;;;;5098043;28;20425;-64
2023/09/29 00:37:49;;;;;;;6.80;4.73;;;18.70;99.90;;;;;;5098417;28;20421;-64
2023/09/29 00:40:15;;;;;;;6.00;5.40;;;18.70;99.90;;;;;;5099307;28;20824;-64
2023/09/29 00:42:44;;;;;;;5.20;4.53;;;18.70;99.90;;;;;;5094029;28;20430;-64
2023/09/29 00:45:11;;;;;;;5.30;4.60;;;18.70;99.90;;;;;;5094967;28;20430;-64
2023/09/29 00:47:38;;;;;;;5.20;4.70;;;18.70;99.90;;;;;;5096946;28;20464;-64
2023/09/29 00:50:07;;;;;;;4.03;3.63;;;18.70;99.90;;;;;;5098444;28;20481;-64
2023/09/29 00:52:37;;;;;;;5.03;4.40;;;18.70;99.90;;;;;;5097531;28;20430;-64
2023/09/29 00:55:06;;;;;;;5.20;4.30;;;18.60;99.90;;;;;;5098071;28;20528;-64
2023/09/29 00:57:33;;;;;;;5.50;4.53;;;18.70;99.90;;;;;;5099679;28;20418;-64
2023/09/29 01:00:00;;;;;;;4.20;3.90;;;18.60;99.90;;;;;;5099476;28;20429;-64
2023/09/29 01:02:26;;;;;;;7.03;4.60;;;18.60;99.90;;;;;;5098647;28;20445;-64
2023/09/29 01:04:53;;;;;;;5.37;4.43;;;18.60;99.90;;;;;;5100002;28;20495;-64
2023/09/29 01:07:19;;;;;;;6.07;3.73;;;18.60;99.90;;;;;;5097629;28;20697;-64
2023/09/29 01:09:45;;;;;;;4.43;4.03;;;18.60;99.90;;;;;;5098758;28;20435;-64
2023/09/29 01:12:27;;;;;;;3.70;3.40;;;18.60;99.90;;;;;;5097614;28;20479;-64
2023/09/29 01:14:53;;;;;;;5.07;4.10;;;18.60;99.90;;;;;;5098085;28;20432;-64
2023/09/29 01:17:19;;;;;;;6.10;3.87;;;18.70;99.90;;;;;;5096978;28;20413;-64
2023/09/29 01:19:48;;;;;;;4.80;4.40;;;18.70;99.90;;;;;;5098474;28;20417;-64
2023/09/29 01:22:14;;;;;;;4.90;3.70;;;18.70;99.90;;;;;;5097634;28;20582;-64
2023/09/29 01:24:39;;;;;;;4.80;3.30;;;18.70;99.90;;;;;;5101796;28;20438;-64
2023/09/29 01:27:06;;;;;;;6.33;4.00;;;18.70;99.90;;;;;;5097599;28;20468;-65
2023/09/29 01:29:32;;;;;;;4.30;3.90;;;18.70;99.90;;;;;;5096934;28;20172;-64
2023/09/29 01:31:57;;;;;;;5.53;3.77;;;18.70;99.90;;;;;;5091858;28;20470;-64
2023/09/29 01:34:24;;;;;;;6.10;3.93;;;18.70;99.90;;;;;;5093726;28;20179;-65
2023/09/29 01:36:50;;;;;;;4.20;3.50;;;18.70;99.90;;;;;;5098896;28;20194;-64
2023/09/29 01:39:16;;;;;;;3.53;3.03;;;18.70;99.90;;;;;;5098589;28;20418;-64
2023/09/29 01:41:43;;;;;;;3.30;3.00;;;18.70;99.90;;;;;;5095016;28;20705;-64
2023/09/29 01:44:09;;;;;;;3.80;3.40;;;18.70;99.90;;;;;;5097638;28;20457;-64
2023/09/29 01:46:35;;;;;;;3.63;3.33;;;18.70;99.90;;;;;;5098240;28;21039;-64
2023/09/29 01:49:01;;;;;;;3.47;3.07;;;18.70;99.90;;;;;;5098670;28;20436;-64
2023/09/29 01:51:29;;;;;;;4.33;3.70;;;18.70;99.90;;;;;;5101466;28;20244;-64
2023/09/29 01:53:55;;;;;;;3.00;2.73;;;18.70;99.90;;;;;;5102932;28;20283;-64
2023/09/29 01:56:21;;;;;;;5.23;3.00;;;18.60;99.90;;;;;;5098417;28;20509;-65
2023/09/29 01:58:50;;;;;;;3.40;3.10;;;18.60;99.90;;;;;;5097947;28;20246;-64
2023/09/29 02:01:16;;;;;;;5.50;3.40;;;18.60;99.90;;;;;;5094862;28;20608;-64
2023/09/29 02:03:44;;;;;;;3.80;3.30;;;18.60;99.90;;;;;;5097713;28;20421;-64
2023/09/29 02:06:10;;;;;;;3.90;2.90;;;18.60;99.90;;;;;;5097333;28;20218;-63
2023/09/29 02:08:36;;;;;;;6.57;3.27;;;18.70;99.90;;;;;;5097487;28;21213;-64
2023/09/29 02:11:02;;;;;;;4.00;3.20;;;18.70;99.90;;;;;;5105633;28;20619;-64
2023/09/29 02:13:28;;;;;;;4.13;3.50;;;18.70;99.90;;;;;;5095329;28;20270;-64
2023/09/29 02:15:53;;;;;;;2.77;2.57;;;18.70;99.90;;;;;;5092603;28;20518;-63
2023/09/29 02:18:19;;;;;;;4.53;3.27;;;18.70;99.90;;;;;;5105170;28;20207;-64
2023/09/29 02:20:48;;;;;;;2.93;2.63;;;18.70;99.90;;;;;;5105491;28;20183;-64
2023/09/29 02:23:14;;;;;;;4.30;2.80;;;18.70;99.90;;;;;;5101572;28;20586;-63
2023/09/29 02:25:41;;;;;;;5.20;3.50;;;18.70;99.90;;;;;;5105741;28;20426;-64
2023/09/29 02:28:10;;;;;;;4.07;3.03;;;18.70;99.90;;;;;;5100679;28;20270;-64
2023/09/29 02:30:36;;;;;;;3.57;3.27;;;18.70;99.90;;;;;;5101530;28;20425;-64
2023/09/29 02:33:02;;;;;;;6.37;3.20;;;18.60;99.90;;;;;;5105581;28;20430;-64
2023/09/29 02:35:28;;;;;;;3.30;3.00;;;18.60;99.90;;;;;;5100375;28;20443;-64
2023/09/29 02:37:54;;;;;;;4.63;3.37;;;18.70;99.90;;;;;;5097144;28;20184;-64
2023/09/29 02:40:22;;;;;;;3.10;2.80;;;18.70;99.90;;;;;;5101234;28;20857;-64
2023/09/29 02:42:47;;;;;;;5.30;3.23;;;18.70;99.90;;;;;;5100502;28;20422;-64
2023/09/29 02:45:14;;;;;;;3.30;3.03;;;18.60;99.90;;;;;;5101273;28;20436;-64
2023/09/29 02:47:41;;;;;;;5.47;3.13;;;18.60;99.90;;;;;;5105028;28;20211;-64
2023/09/29 02:50:11;;;;;;;3.53;3.23;;;18.60;99.90;;;;;;5104527;28;20515;-64
2023/09/29 02:52:40;;;;;;;3.93;2.90;;;18.60;99.90;;;;;;5096402;28;21292;-64
2023/09/29 02:55:10;;;;;;;3.50;3.20;;;18.60;99.90;;;;;;5101964;28;20426;-64
2023/09/29 02:57:36;;;;;;;2.97;2.77;;;18.60;99.90;;;;;;5101515;28;21007;-64
2023/09/29 03:00:18;;;;;;;3.03;2.73;;;18.60;99.90;;;;;;5098185;28;20426;-64
2023/09/29 03:02:44;;;;;;;5.60;3.20;;;18.70;99.90;;;;;;5096954;28;20189;-64
2023/09/29 03:05:11;;;;;;;3.50;3.10;;;18.70;99.90;;;;;;5104851;28;20426;-64
2023/09/29 03:07:37;;;;;;;3.37;2.80;;;18.70;99.90;;;;;;5104668;28;20463;-64
2023/09/29 03:10:07;;;;;;;4.00;3.00;;;18.60;99.90;;;;;;5104802;28;20422;-64
2023/09/29 03:12:33;;;;;;;3.33;3.03;;;18.60;99.90;;;;;;5097935;28;20218;-64
2023/09/29 03:14:59;;;;;;;3.80;3.40;;;18.50;99.90;;;;;;5097569;28;20521;-64
2023/09/29 03:17:24;;;;;;;4.73;3.23;;;18.50;99.90;;;;;;5099107;28;20596;-64
2023/09/29 03:19:52;;;;;;;3.10;2.83;;;18.50;99.90;;;;;;5095949;28;20668;-64
2023/09/29 03:22:18;;;;;;;3.67;3.27;;;18.50;99.90;;;;;;5103271;28;20182;-64
2023/09/29 03:24:44;;;;;;;3.40;3.10;;;18.50;99.90;;;;;;5096404;28;20429;-64
2023/09/29 03:27:10;;;;;;;4.57;3.73;;;18.50;99.90;;;;;;5103388;28;20469;-64
2023/09/29 03:29:35;;;;;;;3.13;2.80;;;18.60;99.90;;;;;;5096486;28;20188;-64
2023/09/29 03:32:01;;;;;;;4.10;3.20;;;18.60;99.90;;;;;;5096016;28;20184;-64
2023/09/29 03:34:27;;;;;;;5.40;3.30;;;18.70;99.90;;;;;;5098528;28;20444;-64
2023/09/29 03:36:53;;;;;;;3.60;3.27;;;18.70;99.90;;;;;;5101148;28;20430;-64
2023/09/29 03:39:18;;;;;;;3.97;3.07;;;18.70;99.90;;;;;;5103656;28;20241;-64
2023/09/29 03:41:45;;;;;;;4.07;3.20;;;18.70;99.90;;;;;;5099938;28;20199;-64
2023/09/29 03:44:12;;;;;;;3.83;3.43;;;18.70;99.90;;;;;;5098770;28;20187;-64
2023/09/29 03:46:38;;;;;;;5.70;3.53;;;18.60;99.90;;;;;;5095456;28;20465;-64
2023/09/29 03:49:05;;;;;;;5.10;4.10;;;18.60;99.90;;;;;;5094028;28;20787;-64
2023/09/29 03:51:30;;;;;;;5.00;3.37;;;18.60;99.90;;;;;;5098221;28;20509;-64
2023/09/29 03:53:57;;;;;;;5.20;3.50;;;18.60;99.90;;;;;;5098814;28;20796;-64
2023/09/29 03:56:24;;;;;;;3.97;3.57;;;18.60;99.90;;;;;;5103282;28;20235;-64
2023/09/29 03:58:51;;;;;;;5.73;3.70;;;18.70;99.90;;;;;;5104142;28;20511;-64
2023/09/29 04:01:19;;;;;;;4.93;3.80;;;18.70;99.90;;;;;;5102433;28;20176;-64
2023/09/29 04:03:45;;;;;;;3.90;3.37;;;18.80;99.90;;;;;;5099853;28;20424;-64
2023/09/29 04:06:10;;;;;;;3.83;3.53;;;18.80;99.90;;;;;;5103180;28;20199;-64
2023/09/29 04:08:36;;;;;;;3.63;3.33;;;18.80;99.90;;;;;;5103212;28;20279;-64
2023/09/29 04:11:03;;;;;;;3.70;3.40;;;18.80;99.90;;;;;;5100083;28;20249;-64
2023/09/29 04:13:29;;;;;;;5.13;3.77;;;18.80;99.90;;;;;;5097935;28;20425;-64
2023/09/29 04:15:55;;;;;;;4.73;3.57;;;18.80;99.90;;;;;;5098614;28;20491;-64
2023/09/29 04:18:21;;;;;;;5.60;3.63;;;18.80;99.90;;;;;;5101764;28;20179;-64
2023/09/29 04:20:46;;;;;;;4.27;3.40;;;18.80;99.90;;;;;;5099613;28;20271;-65
2023/09/29 04:23:12;;;;;;;5.67;3.60;;;18.80;99.90;;;;;;5097857;28;21003;-64
2023/09/29 04:25:38;;;;;;;6.57;4.00;;;18.80;99.90;;;;;;5103703;28;20187;-63
2023/09/29 04:28:04;;;;;;;6.40;3.80;;;18.80;99.90;;;;;;5085017;28;20765;-64
2023/09/29 04:30:30;;;;;;;4.03;3.60;;;18.90;99.90;;;;;;5098437;28;20823;-64
2023/09/29 04:32:56;;;;;;;4.83;3.40;;;18.90;99.90;;;;;;5097665;28;20210;-64
2023/09/29 04:35:21;;;;;;;5.47;4.00;;;18.80;99.90;;;;;;5101816;28;20545;-65
2023/09/29 04:37:49;;;;;;;5.23;3.53;;;18.80;99.90;;;;;;5099780;28;20188;-65
2023/09/29 04:40:15;;;;;;;4.47;3.93;;;18.90;99.90;;;;;;5097118;28;20657;-65
2023/09/29 04:42:41;;;;;;;6.97;3.93;;;18.80;99.90;;;;;;5076749;28;20426;-65
2023/09/29 04:45:08;;;;;;;4.30;4.00;;;18.80;99.90;;;;;;5096695;28;20427;-65
2023/09/29 04:47:34;;;;;;;4.20;3.80;;;18.70;99.90;;;;;;5100038;28;20238;-65
2023/09/29 04:50:00;;;;;;;4.80;3.90;;;18.70;99.90;;;;;;5100707;28;20839;-65
2023/09/29 04:52:26;;;;;;;4.37;3.80;;;18.70;99.90;;;;;;5101941;28;21096;-65
2023/09/29 04:54:52;;;;;;;4.43;4.00;;;18.70;99.90;;;;;;5097958;28;20422;-66
2023/09/29 04:57:18;;;;;;;4.53;3.60;;;18.60;99.90;;;;;;5098564;28;20468;-64
2023/09/29 04:59:44;;;;;;;6.00;3.67;;;18.60;99.90;;;;;;5098001;28;20418;-65
2023/09/29 05:02:10;;;;;;;5.23;3.53;;;18.60;99.90;;;;;;5097290;28;20429;-64
2023/09/29 05:04:36;;;;;;;3.87;3.50;;;18.60;99.90;;;;;;5102917;28;20429;-65
2023/09/29 05:07:01;;;;;;;3.80;3.43;;;18.60;99.90;;;;;;5094516;28;20219;-65
2023/09/29 05:09:27;;;;;;;4.60;4.20;;;18.60;99.90;;;;;;5097334;28;20658;-65
2023/09/29 05:11:53;;;;;;;4.70;3.77;;;18.60;99.90;;;;;;5097672;28;20426;-65
2023/09/29 05:14:19;;;;;;;4.27;3.87;;;18.60;99.90;;;;;;5097237;28;20211;-65
2023/09/29 05:16:44;;;;;;;5.93;4.40;;;18.60;99.90;;;;;;5097769;28;20527;-65
2023/09/29 05:19:10;;;;;;;3.70;3.33;;;18.60;99.90;;;;;;5101880;28;20413;-64
2023/09/29 05:21:36;;;;;;;4.63;3.40;;;18.60;99.90;;;;;;5100390;28;20626;-64
2023/09/29 05:24:02;;;;;;;5.87;4.30;;;18.60;99.90;;;;;;5090380;28;20840;-65
2023/09/29 05:26:28;;;;;;;5.87;4.17;;;18.70;99.90;;;;;;5101487;28;21039;-65
2023/09/29 05:28:55;;;;;;;4.03;3.67;;;18.70;99.90;;;;;;5097156;28;20422;-64
2023/09/29 05:31:21;;;;;;;4.37;3.80;;;18.70;99.90;;;;;;5101826;28;20433;-64
2023/09/29 05:33:47;;;;;;;4.17;3.67;;;18.70;99.90;;;;;;5098131;28;20422;-65
2023/09/29 05:36:12;;;;;;;6.47;3.60;;;18.70;99.90;;;;;;5100984;28;20789;-64
2023/09/29 05:38:38;;;;;;;5.20;4.60;;;18.70;99.90;;;;;;5097281;28;20245;-65
2023/09/29 05:41:04;;;;;;;4.67;4.27;;;18.60;99.90;;;;;;5098720;28;20179;-64
2023/09/29 05:43:30;;;;;;;5.30;4.63;;;18.70;99.90;;;;;;5084466;28;20619;-64
2023/09/29 05:45:56;;;;;;;4.83;4.27;;;18.70;99.90;;;;;;5097921;28;20592;-64
2023/09/29 05:48:21;;;;;;;5.10;3.77;;;18.70;99.90;;;;;;5100812;28;20528;-64
2023/09/29 05:50:47;;;;;;;5.30;4.37;;;18.70;99.90;;;;;;5101494;28;20211;-64
2023/09/29 05:53:13;;;;;;;4.60;3.97;;;18.70;99.90;;;;;;5100134;28;20188;-64
2023/09/29 05:55:39;;;;;;;4.10;3.70;;;18.70;99.90;;;;;;5103020;28;20187;-64
2023/09/29 05:58:04;;;;;;;6.23;4.60;;;18.60;99.90;;;;;;5100861;28;20184;-64
2023/09/29 06:00:30;;;;;;;4.33;3.93;;;18.70;99.90;;;;;;5095085;28;20202;-65
2023/09/29 06:02:56;;;;;;;3.80;3.40;;;18.70;99.90;;;;;;5098430;28;20181;-64
2023/09/29 06:05:22;;;;;;;4.70;4.30;;;18.70;99.90;;;;;;5086987;28;20183;-65
2023/09/29 06:07:47;;;;;;;4.63;4.23;;;18.70;99.90;;;;;;5100703;28;20237;-64
2023/09/29 06:10:13;;;;;;;5.20;3.97;;;18.80;99.90;;;;;;5099990;28;20990;-65
2023/09/29 06:12:39;;;;;;;10.30;3.47;;;18.80;99.90;;;;;;5101247;28;20298;-65
2023/09/29 06:15:06;;;;;;;4.80;4.03;;;18.80;99.90;;;;;;5098511;28;20294;-64
2023/09/29 06:17:32;;;;;;;4.30;3.90;;;18.90;99.90;;;;;;5099305;28;20457;-64
2023/09/29 06:19:58;;;;;;;5.93;3.80;;;18.90;99.90;;;;;;5100887;28;21141;-65
2023/09/29 06:22:25;;;;;;;6.97;4.27;;;18.90;99.90;;;;;;5094423;28;20271;-65
2023/09/29 06:24:50;;;;;;;6.53;3.97;;;18.90;99.90;;;;;;5097190;28;20271;-64
2023/09/29 06:27:16;;;;;;;3.90;3.43;;;18.90;99.90;;;;;;5104479;28;20513;-64
2023/09/29 06:29:46;;;;;;;4.83;3.80;;;18.90;99.90;;;;;;5078625;28;20231;-65
2023/09/29 06:32:12;;;;;;;4.97;3.57;;;19.00;99.90;;;;;;5104240;28;20190;-65
2023/09/29 06:34:38;;;;;;;4.23;3.83;;;19.00;99.90;;;;;;5100581;28;20536;-65
2023/09/29 06:37:04;;;;;;;3.80;3.50;;;19.00;99.90;;;;;;5101654;28;20478;-64
2023/09/29 06:39:30;;;;;;;6.73;3.50;;;19.00;99.90;;;;;;5100074;28;20180;-64
2023/09/29 06:41:56;;;;;;;5.73;3.87;;;19.00;99.90;;;;;;5100312;28;20444;-64
2023/09/29 06:44:22;;;;;;;4.43;3.53;;;19.00;99.90;;;;;;5096186;28;20252;-64
2023/09/29 06:46:48;;;;;;;5.13;4.00;;;19.00;99.90;;;;;;5105243;28;20581;-65
2023/09/29 06:49:14;;;;;;;6.13;4.00;;;19.00;99.90;;;;;;5099030;28;20467;-64
2023/09/29 06:51:40;;;;;;;3.70;3.30;;;19.10;99.90;;;;;;5081768;28;20184;-64
2023/09/29 06:54:05;;;;;;;3.90;3.47;;;19.10;99.90;;;;;;5097416;28;20184;-64
2023/09/29 06:56:31;;;;;;;4.03;3.63;;;19.10;99.90;;;;;;5101104;28;20186;-64
2023/09/29 06:58:57;;;;;;;4.50;3.60;;;19.20;99.90;;;;;;5096800;28;20884;-64
2023/09/29 07:01:24;;;;;;;3.87;3.50;;;19.20;99.90;;;;;;5094827;28;20199;-64
2023/09/29 07:03:50;;;;;;;3.60;3.30;;;19.20;99.90;;;;;;5096138;28;20435;-64
2023/09/29 07:06:16;;;;;;;4.63;3.50;;;19.20;99.90;;;;;;5103644;28;20455;-64
2023/09/29 07:08:41;;;;;;;6.57;3.20;;;19.30;99.90;;;;;;5082159;28;20263;-65
2023/09/29 07:11:07;;;;;;;5.13;3.43;;;19.20;99.90;;;;;;5095868;28;20253;-64
2023/09/29 07:13:33;;;;;;;4.27;3.87;;;19.30;99.90;;;;;;5099563;28;20349;-64
2023/09/29 07:15:59;;;;;;;4.03;3.63;;;19.30;99.90;;;;;;5099186;28;20188;-64
2023/09/29 07:18:25;;;;;;;4.10;3.70;;;19.30;99.90;;;;;;5104585;28;20175;-64
2023/09/29 07:20:52;;;;;;;5.13;3.50;;;19.30;99.90;;;;;;5104954;28;20186;-65
2023/09/29 07:23:24;;;;;;;4.27;3.60;;;19.30;99.90;;;;;;5103521;28;20514;-64
2023/09/29 07:25:52;;;;;;;6.10;4.10;;;19.40;99.90;;;;;;5095837;28;20434;-64
2023/09/29 07:28:18;;;;;;;10.90;3.63;;;19.40;99.90;;;;;;5095496;28;20423;-64
2023/09/29 07:30:44;;;;;;;5.03;3.57;;;19.50;99.90;;;;;;5099202;28;21083;-63
2023/09/29 07:33:10;;;;;;;4.13;3.67;;;19.50;99.90;;;;;;5098930;28;20184;-64
2023/09/29 07:35:37;;;;;;;3.20;2.90;;;19.50;99.90;;;;;;5105127;28;21200;-64
2023/09/29 07:38:04;;;;;;;4.87;3.87;;;19.50;99.90;;;;;;5103799;28;20994;-64
2023/09/29 07:40:30;;;;;;;4.80;3.90;;;19.50;99.90;;;;;;5098694;28;20460;-64
2023/09/29 07:42:57;;;;;;;4.40;3.77;;;19.60;99.90;;;;;;5098613;28;20786;-64
2023/09/29 07:45:23;;;;;;;4.80;3.50;;;19.60;99.90;;;;;;5098926;28;20461;-64
2023/09/29 07:47:49;;;;;;;5.60;3.53;;;19.70;99.90;;;;;;5099257;28;20552;-64
2023/09/29 07:50:15;;;;;;;4.93;3.70;;;19.80;99.90;;;;;;5098074;28;20210;-64
2023/09/29 07:52:40;;;;;;;4.10;3.53;;;19.90;99.90;;;;;;5098932;28;20176;-64
2023/09/29 07:55:07;;;;;;;4.10;3.70;;;20.10;99.90;;;;;;5103083;28;20185;-64
2023/09/29 07:57:33;;;;;;;4.13;3.67;;;20.30;99.90;;;;;;5085887;28;20270;-64
2023/09/29 07:59:59;;;;;;;3.43;3.13;;;20.50;99.90;;;;;;5098348;28;21220;-64
2023/09/29 08:02:26;;;;;;;5.73;3.40;;;20.50;99.90;;;;;;5098657;28;20490;-64
2023/09/29 08:04:52;;;;;;;4.50;3.47;;;20.50;99.90;;;;;;5098735;28;20433;-64
2023/09/29 08:07:19;;;;;;;5.47;3.30;;;20.50;99.90;;;;;;5093847;28;20475;-64
2023/09/29 08:09:48;;;;;;;5.30;4.03;;;20.40;99.90;;;;;;5098713;28;20533;-64
2023/09/29 08:12:14;;;;;;;4.57;3.90;;;20.50;99.90;;;;;;5102894;28;20433;-64
2023/09/29 08:14:39;;;;;;;3.60;3.30;;;20.50;99.90;;;;;;5095286;28;20433;-64
2023/09/29 08:17:05;;;;;;;5.07;3.50;;;20.70;99.90;;;;;;5097326;28;20510;-64
2023/09/29 08:19:32;;;;;;;4.00;3.20;;;20.80;99.90;;;;;;5098053;28;20180;-64
2023/09/29 08:21:58;;;;;;;4.90;3.40;;;21.10;99.90;;;;;;5097849;28;20183;-63
2023/09/29 08:24:23;;;;;;;5.03;3.60;;;21.20;99.90;;;;;;5097791;28;20428;-64
2023/09/29 08:26:49;;;;;;;6.17;3.33;;;21.30;99.90;;;;;;5098354;28;20733;-64
2023/09/29 08:29:15;;;;;;;4.13;3.20;;;21.40;99.90;;;;;;5089151;28;20186;-64
2023/09/29 08:31:45;;;;;;;4.53;3.50;;;21.40;99.90;;;;;;5071146;28;20195;-64
2023/09/29 08:34:11;;;;;;;3.87;3.53;;;21.40;99.90;;;;;;5101562;28;20475;-64
2023/09/29 08:36:37;;;;;;;4.83;3.20;;;21.30;99.90;;;;;;5099928;28;20513;-64
2023/09/29 08:39:03;;;;;;;3.83;3.27;;;21.30;99.90;;;;;;5096930;28;20195;-64
2023/09/29 08:41:29;;;;;;;3.80;3.50;;;21.30;99.90;;;;;;5100753;28;20426;-64
2023/09/29 08:43:55;;;;;;;4.27;3.50;;;21.30;99.90;;;;;;5099624;28;20595;-64
2023/09/29 08:46:21;;;;;;;4.63;3.00;;;21.30;99.90;;;;;;5084409;28;20468;-64
2023/09/29 08:48:47;;;;;;;4.20;3.63;;;21.40;99.90;;;;;;5097909;28;20430;-64
2023/09/29 08:51:15;;;;;;;3.70;3.20;;;21.50;99.90;;;;;;5096617;28;20658;-64
2023/09/29 08:53:44;;;;;;;4.50;3.83;;;21.70;99.90;;;;;;5097757;28;20430;-64
2023/09/29 08:56:16;;;;;;;5.03;3.93;;;21.90;99.90;;;;;;5101992;28;21328;-64
2023/09/29 08:58:42;;;;;;;4.10;3.70;;;22.00;99.90;;;;;;5099320;28;20446;-64
2023/09/29 09:01:10;;;;;;;5.10;3.30;;;22.10;99.90;;;;;;5095570;28;20495;-64
2023/09/29 09:03:36;;;;;;;3.97;3.57;;;22.20;99.90;;;;;;5097754;28;20433;-64
2023/09/29 09:06:20;;;;;;;9.10;3.93;;;22.30;99.90;;;;;;5096590;28;21062;-64
2023/09/29 09:08:45;;;;;;;4.77;3.80;;;22.30;99.90;;;;;;5095844;28;20188;-64
2023/09/29 09:11:11;;;;;;;4.77;3.20;;;22.20;99.90;;;;;;5095927;28;20516;-62
2023/09/29 09:13:37;;;;;;;5.63;3.83;;;22.10;99.90;;;;;;5097252;28;20657;-65
2023/09/29 09:16:02;;;;;;;3.60;3.30;;;22.00;99.90;;;;;;5096525;28;20715;-64
2023/09/29 09:18:28;;;;;;;5.40;2.93;;;22.00;99.90;;;;;;5101217;28;20184;-65
2023/09/29 09:20:54;;;;;;;4.67;3.50;;;22.00;99.90;;;;;;5097923;28;20579;-64
2023/09/29 09:23:20;;;;;;;6.13;3.63;;;21.90;99.90;;;;;;5103309;28;20175;-65
2023/09/29 09:25:46;;;;;;;4.20;3.40;;;21.80;99.90;;;;;;5101789;28;20762;-65
2023/09/29 09:28:16;;;;;;;4.00;3.63;;;21.80;99.90;;;;;;5098063;28;20461;-65
2023/09/29 09:30:42;;;;;;;8.17;3.67;;;21.80;99.90;;;;;;5101560;28;20787;-65
2023/09/29 09:33:17;;;;;;;3.40;2.80;;;21.80;99.90;;;;;;5100921;28;20425;-64
2023/09/29 09:35:43;;;;;;;4.23;3.83;;;21.80;99.90;;;;;;5101502;28;20532;-64
2023/09/29 09:38:08;;;;;;;4.00;3.23;;;21.80;99.90;;;;;;5100318;28;20429;-65
2023/09/29 09:40:34;;;;;;;5.20;3.73;;;21.80;99.90;;;;;;5106206;28;20241;-64
2023/09/29 09:43:05;;;;;;;3.50;3.20;;;21.90;99.90;;;;;;5100470;28;20187;-64
2023/09/29 09:45:43;;;;;;;3.73;3.33;;;21.90;99.90;;;;;;5101158;28;20248;-64
2023/09/29 09:48:10;;;;;;;7.10;3.50;;;22.00;99.90;;;;;;5100533;28;20465;-64
2023/09/29 09:50:40;;;;;;;4.50;4.10;;;22.00;99.90;;;;;;5095081;28;20481;-64
2023/09/29 09:53:11;;;;;;;5.43;3.23;;;22.10;99.90;;;;;;5104260;28;20554;-64
2023/09/29 09:55:57;;;;;;;3.83;3.43;;;22.20;99.90;;;;;;5103266;28;20446;-64
2023/09/29 09:58:23;;;;;;;3.60;3.30;;;22.30;99.90;;;;;;5102724;28;20413;-64
2023/09/29 10:00:55;;;;;;;4.10;3.50;;;22.40;99.90;;;;;;5101691;28;20426;-64
2023/09/29 10:03:21;;;;;;;5.13;3.70;;;22.60;99.90;;;;;;5097968;28;21009;-64
2023/09/29 10:05:52;;;;;;;4.93;4.07;;;22.60;99.90;;;;;;5096521;28;20487;-64
2023/09/29 10:08:31;;;;;;;4.87;3.93;;;22.60;99.90;;;;;;5099817;28;20471;-64
2023/09/29 10:11:11;;;;;;;5.07;3.80;;;22.60;99.90;;;;;;5099799;28;20429;-64
2023/09/29 10:13:39;;;;;;;4.50;3.40;;;22.50;99.90;;;;;;5100571;28;20428;-64
2023/09/29 10:16:07;;;;;;;5.50;4.13;;;22.50;99.90;;;;;;5086957;28;20783;-64
2023/09/29 10:18:35;;;;;;;4.60;3.67;;;22.40;99.90;;;;;;5097852;28;20430;-64
2023/09/29 10:21:08;;;;;;;4.57;4.00;;;22.30;99.90;;;;;;5097002;28;20414;-64
2023/09/29 10:23:49;;;;;;;9.40;4.60;;;22.30;99.90;;;;;;5100873;28;20565;-64
2023/09/29 10:26:15;;;;;;;6.57;4.20;;;22.20;99.90;;;;;;5097032;28;20801;-64
2023/09/29 10:28:41;;;;;;;6.80;4.13;;;22.10;99.90;;;;;;5097542;28;20433;-64
2023/09/29 10:31:14;;;;;;;7.10;4.03;;;22.10;99.90;;;;;;5099064;28;20192;-64
2023/09/29 10:33:54;;;;;;;5.70;4.07;;;22.00;99.90;;;;;;5094056;28;20500;-64
2023/09/29 10:36:24;;;;;;;6.00;3.33;;;21.90;99.90;;;;;;5096686;28;20825;-64
2023/09/29 10:38:50;;;;;;;5.50;4.47;;;21.90;99.90;;;;;;5101283;28;20426;-64
2023/09/29 10:41:18;;;;;;;4.70;3.20;;;21.90;99.90;;;;;;5104605;28;20436;-64
2023/09/29 10:43:51;;;;;;;5.07;3.03;;;21.80;99.90;;;;;;5100620;28;20444;-64
2023/09/29 10:46:20;;;;;;;4.90;3.30;;;21.90;99.90;;;;;;5099605;28;20457;-64
2023/09/29 10:48:50;;;;;;;5.53;2.90;;;21.90;99.90;;;;;;5099432;28;20836;-64
2023/09/29 10:51:28;;;;;;;3.30;2.67;;;21.90;99.90;;;;;;5098876;28;20449;-64
2023/09/29 10:53:55;;;;;;;7.63;3.00;;;21.90;99.90;;;;;;5096020;28;20434;-64
2023/09/29 10:56:22;;;;;;;8.60;3.87;;;21.80;99.90;;;;;;5096216;28;20430;-64
2023/09/29 10:58:54;;;;;;;20.30;5.70;;;21.80;99.90;;;;;;5095892;28;20423;-64
2023/09/29 11:01:28;;;;;;;5.33;3.20;;;21.80;99.90;;;;;;5086867;28;20471;-64
2023/09/29 11:03:57;;;;;;;7.37;3.20;;;21.70;99.90;;;;;;5098924;28;20468;-64
2023/09/29 11:06:23;;;;;;;4.00;2.70;;;21.60;99.90;;;;;;5099395;28;20484;-64
2023/09/29 11:08:57;;;;;;;4.60;3.30;;;21.60;99.90;;;;;;5098870;28;20448;-63
2023/09/29 11:11:26;;;;;;;4.07;3.30;;;21.60;99.90;;;;;;5096987;28;20430;-64
2023/09/29 11:13:56;;;;;;;8.80;3.90;;;21.60;99.90;;;;;;5099055;28;20919;-64
2023/09/29 11:16:26;;;;;;;4.60;3.40;;;21.70;99.90;;;;;;5095973;28;20508;-64
2023/09/29 11:18:56;;;;;;;6.40;3.73;;;22.00;99.90;;;;;;5077000;28;20423;-64
2023/09/29 11:21:35;;;;;;;6.90;3.67;;;22.20;99.90;;;;;;5096425;28;20430;-64
2023/09/29 11:24:09;;;;;;;6.17;4.03;;;22.40;99.90;;;;;;5098268;28;20426;-64
2023/09/29 11:26:38;;;;;;;6.70;4.03;;;22.60;99.90;;;;;;5096081;28;21434;-64
2023/09/29 11:29:04;;;;;;;5.37;3.20;;;22.70;99.90;;;;;;5098595;28;20460;-64
2023/09/29 11:31:30;;;;;;;7.47;4.23;;;22.90;99.90;;;;;;5086115;28;20485;-64
2023/09/29 11:33:56;;;;;;;8.20;3.63;;;22.90;99.90;;;;;;5097981;28;20215;-64
2023/09/29 11:36:25;;;;;;;4.80;3.40;;;22.90;99.90;;;;;;5098867;28;20432;-64
2023/09/29 11:38:51;;;;;;;8.73;4.27;;;22.90;99.90;;;;;;5098507;28;20417;-64
2023/09/29 11:41:23;;;;;;;5.30;3.47;;;22.80;99.90;;;;;;5100081;28;20955;-64
2023/09/29 11:43:49;;;;;;;9.00;4.37;;;22.70;99.90;;;;;;5094369;28;20660;-64
2023/09/29 11:46:15;;;;;;;8.93;4.03;;;22.80;99.90;;;;;;5098174;28;20422;-63
2023/09/29 11:48:42;;;;;;;9.33;4.30;;;22.80;99.90;;;;;;5096021;28;20425;-64
2023/09/29 11:51:09;;;;;;;5.60;3.67;;;22.80;99.90;;;;;;5097742;28;20457;-64
2023/09/29 11:53:35;;;;;;;7.10;3.87;;;22.90;99.90;;;;;;5098805;28;20465;-64
2023/09/29 11:56:00;;;;;;;6.07;4.30;;;22.90;99.90;;;;;;5103249;28;20437;-64
2023/09/29 11:58:26;;;;;;;8.10;3.80;;;23.00;99.90;;;;;;5098711;28;20417;-65
2023/09/29 12:00:52;;;;;;;6.60;3.87;;;23.20;99.90;;;;;;5097962;28;20184;-64
2023/09/29 12:03:21;;;;;;;8.20;3.87;;;23.30;99.90;;;;;;5103584;28;20538;-64
2023/09/29 12:05:50;;;;;;;8.70;4.60;;;23.50;99.90;;;;;;5095876;28;20429;-64
2023/09/29 12:08:16;;;;;;;6.27;4.10;;;23.60;99.90;;;;;;5103317;28;20476;-64
2023/09/29 12:10:42;;;;;;;6.80;4.13;;;23.80;99.90;;;;;;5094400;28;20423;-64
2023/09/29 12:13:10;;;;;;;6.00;3.50;;;23.80;99.90;;;;;;5096537;28;20525;-64
2023/09/29 12:15:36;;;;;;;6.03;3.40;;;24.00;99.90;;;;;;5098113;28;20213;-64
2023/09/29 12:18:02;;;;;;;7.10;3.77;;;23.90;99.90;;;;;;5097479;28;20474;-64
2023/09/29 12:20:28;;;;;;;9.40;4.20;;;23.90;99.90;;;;;;5097865;28;20804;-64
2023/09/29 12:22:55;;;;;;;6.57;4.73;;;23.80;99.90;;;;;;5100279;28;20462;-64
2023/09/29 12:25:21;;;;;;;8.13;4.50;;;23.80;99.90;;;;;;5097721;28;20417;-64
2023/09/29 12:27:50;;;;;;;6.50;4.27;;;23.80;99.90;;;;;;5097348;28;20872;-64
2023/09/29 12:30:17;;;;;;;6.50;4.07;;;23.70;99.90;;;;;;5102792;28;20804;-64
2023/09/29 12:32:44;;;;;;;6.70;4.60;;;23.60;99.90;;;;;;5100254;28;20491;-64
2023/09/29 12:35:12;;;;;;;8.20;4.10;;;23.50;99.90;;;;;;5103171;28;21043;-64
2023/09/29 12:37:39;;;;;;;8.50;4.90;;;23.50;99.90;;;;;;5094472;28;21290;-64
2023/09/29 12:40:11;;;;;;;7.57;3.90;;;23.30;99.90;;;;;;5100517;28;20826;-64
2023/09/29 12:42:40;;;;;;;8.83;4.80;;;23.40;99.90;;;;;;5097785;28;20951;-64
2023/09/29 12:45:09;;;;;;;8.87;4.43;;;23.40;99.90;;;;;;5097652;28;20427;-64
2023/09/29 12:47:34;;;;;;;8.67;4.90;;;23.50;99.90;;;;;;5097492;28;20481;-64